地図

経路データ

SID SEASON NUMBER BASIN SUBBASIN NAME ISO_TIME NATURE LAT LON WMO_WIND WMO_PRES WMO_AGENCY TRACK_TYPE DIST2LAND LANDFALL IFLAG USA_AGENCY USA_ATCF_ID USA_LAT USA_LON USA_RECORD USA_STATUS USA_WIND USA_PRES USA_SSHS USA_R34_NE USA_R34_SE USA_R34_SW USA_R34_NW USA_R50_NE USA_R50_SE USA_R50_SW USA_R50_NW USA_R64_NE USA_R64_SE USA_R64_SW USA_R64_NW USA_POCI USA_ROCI USA_RMW USA_EYE TOKYO_LAT TOKYO_LON TOKYO_GRADE TOKYO_WIND TOKYO_PRES TOKYO_R50_DIR TOKYO_R50_LONG TOKYO_R50_SHORT TOKYO_R30_DIR TOKYO_R30_LONG TOKYO_R30_SHORT TOKYO_LAND CMA_LAT CMA_LON CMA_CAT CMA_WIND CMA_PRES HKO_LAT HKO_LON HKO_CAT HKO_WIND HKO_PRES NEWDELHI_LAT NEWDELHI_LON NEWDELHI_GRADE NEWDELHI_WIND NEWDELHI_PRES NEWDELHI_CI NEWDELHI_DP NEWDELHI_POCI REUNION_LAT REUNION_LON REUNION_TYPE REUNION_WIND REUNION_PRES REUNION_TNUM REUNION_CI REUNION_RMW REUNION_R34_NE REUNION_R34_SE REUNION_R34_SW REUNION_R34_NW REUNION_R50_NE REUNION_R50_SE REUNION_R50_SW REUNION_R50_NW REUNION_R64_NE REUNION_R64_SE REUNION_R64_SW REUNION_R64_NW BOM_LAT BOM_LON BOM_TYPE BOM_WIND BOM_PRES BOM_TNUM BOM_CI BOM_RMW BOM_R34_NE BOM_R34_SE BOM_R34_SW BOM_R34_NW BOM_R50_NE BOM_R50_SE BOM_R50_SW BOM_R50_NW BOM_R64_NE BOM_R64_SE BOM_R64_SW BOM_R64_NW BOM_ROCI BOM_POCI BOM_EYE BOM_POS_METHOD BOM_PRES_METHOD NADI_LAT NADI_LON NADI_CAT NADI_WIND NADI_PRES WELLINGTON_LAT WELLINGTON_LON WELLINGTON_WIND WELLINGTON_PRES DS824_LAT DS824_LON DS824_STAGE DS824_WIND DS824_PRES TD9636_LAT TD9636_LON TD9636_STAGE TD9636_WIND TD9636_PRES TD9635_LAT TD9635_LON TD9635_WIND TD9635_PRES TD9635_ROCI NEUMANN_LAT NEUMANN_LON NEUMANN_CLASS NEUMANN_WIND NEUMANN_PRES MLC_LAT MLC_LON MLC_CLASS MLC_WIND MLC_PRES USA_GUST BOM_GUST BOM_GUST_PER REUNION_GUST REUNION_GUST_PER USA_SEAHGT USA_SEARAD_NE USA_SEARAD_SE USA_SEARAD_SW USA_SEARAD_NW STORM_SPEED STORM_DIR
1971255N20131 1971 117 WP MM NOT_NAMED 1971-09-11 15:00:00 NR 19.7626 131.035 spur-other 927 875 ______________ -1 10 276
1971255N20131 1971 117 WP MM NOT_NAMED 1971-09-11 18:00:00 NR 19.8193 130.485 spur-other 875 825 ______________ -1 10 276
1971255N20131 1971 117 WP MM NOT_NAMED 1971-09-11 21:00:00 NR 19.8663 129.968 spur-other 825 774 ______________ -1 9 275
1971255N20131 1971 117 WP MM NOT_NAMED 1971-09-12 00:00:00 NR 19.9000 129.500 spur-other 774 733 __________O___ -1 19.9000 129.500 1 25 8 273
1971255N20131 1971 117 WP MM NOT_NAMED 1971-09-12 03:00:00 NR 19.9132 129.093 spur-other 733 703 __________P___ -1 19.9320 129.132 1 26 7 269
1971255N20131 1971 117 WP MM NOT_NAMED 1971-09-12 06:00:00 NR 19.8843 128.745 spur-other 692 669 __________P___ -1 19.9209 128.781 1 27 6 258
1971255N20131 1971 117 WP MM NOT_NAMED 1971-09-12 09:00:00 NR 19.7884 128.450 spur-other 659 634 __________P___ -1 19.8243 128.464 1 28 6 241
1971255N20131 1971 117 WP MM NOT_NAMED 1971-09-12 12:00:00 NR 19.6000 128.200 spur-other 634 608 __________O___ -1 19.6000 128.200 1 30 7 217
1971255N20131 1971 117 WP MM NOT_NAMED 1971-09-12 15:00:00 NR 19.2280 127.998 spur-other 606 581 __________P___ -1 19.2280 127.998 1 30 9 203
1971255N20131 1971 117 WP MM NOT_NAMED 1971-09-12 18:00:00 NR 18.7769 127.834 spur-other 581 569 __________P___ -1 18.7769 127.834 1 30 9 199
1971255N20131 1971 117 WP MM NOT_NAMED 1971-09-12 21:00:00 NR 18.3374 127.679 spur-other 569 542 __________P___ -1 18.3374 127.679 1 30 8 202
1971255N20131 1971 117 WP MM NOT_NAMED 1971-09-13 00:00:00 NR 18.0000 127.500 spur-other 542 508 __________O___ -1 18.0000 127.500 1 30 6 224
1971255N20131 1971 117 WP MM NOT_NAMED 1971-09-13 03:00:00 NR 17.8853 127.218 spur-other 508 477 __________P___ -1 17.8853 127.218 1 31 6 258
1971255N20131 1971 117 WP MM NOT_NAMED 1971-09-13 06:00:00 NR 17.8805 126.913 spur-other 477 446 __________P___ -1 17.8805 126.913 1 32 6 275
1971255N20131 1971 117 WP MM NOT_NAMED 1971-09-13 09:00:00 NR 17.9353 126.627 spur-other 446 428 __________P___ -1 17.9353 126.627 1 33 5 284
1971255N20131 1971 117 WP MM NOT_NAMED 1971-09-13 12:00:00 NR 18.0000 126.400 spur-other 428 408 __________O___ -1 18.0000 126.400 2 35 4 276
1971255N20131 1971 117 WP MM NOT_NAMED 1971-09-13 15:00:00 NR 17.9753 126.241 spur-other 408 408 __________P___ -1 17.9753 126.241 2 35 2 259
1971255N20131 1971 117 WP MM NOT_NAMED 1971-09-13 18:00:00 NR 17.9546 126.150 spur-other 408 397 __________P___ -1 17.9546 126.150 2 35 1 260
1971255N20131 1971 117 WP MM NOT_NAMED 1971-09-13 21:00:00 NR 17.9566 126.135 spur-other 397 397 __________P___ -1 17.9566 126.135 2 35 1 36
1971255N20131 1971 117 WP MM NOT_NAMED 1971-09-14 00:00:00 NR 18.0000 126.200 spur-other 408 408 __________O___ -1 18.0000 126.200 2 35 3 52
1971255N20131 1971 117 WP MM NOT_NAMED 1971-09-14 03:00:00 NR 18.1438 126.386 spur-other 431 431 __________P___ -1 18.0979 126.348 2 35 5 53
1971255N20131 1971 117 WP MM NOT_NAMED 1971-09-14 06:00:00 NR 18.3231 126.642 spur-other 454 454 __________P___ -1 18.2406 126.562 2 35 6 55
1971255N20131 1971 117 WP MM NOT_NAMED 1971-09-14 09:00:00 NR 18.4907 126.902 spur-other 485 485 __________P___ -1 18.4130 126.820 2 35 5 58
1971255N20131 1971 117 WP MM NOT_NAMED 1971-09-14 12:00:00 NR 18.6000 127.100 spur-other 506 __________O___ -1 18.6000 127.100 2 35 4 60

デジタル台風データ・検索

IBTrACS Databaseについて

本データベースは、米国NOAAが公開する1842年以降の世界の熱帯低気圧のベストトラックデータアーカイブInternational Best Track Archive for Climate Stewardship (IBTrACS)を、ウェブで閲覧しやすい形式に変換したものです。

最終更新日:2021-10-08